Time;durP1;ratioP1;P1;durP2;ratioP2;P2;SDS_P1;SDS_P2;PMS_P1;PMS_P2;Temp;Humidity;BMP_temperature;BMP_pressure;BME280_temperature;BME280_humidity;BME280_pressure;Samples;Min_cycle;Max_cycle;Signal;HPM_P1;HPM_P2
2022/04/16 00:02:01;;;;;;;18.13;16.23;;;8.30;99.90;;;;;;5039228;28;20435;-36
2022/04/16 00:04:28;;;;;;;20.67;15.70;;;8.40;99.90;;;;;;5050039;28;20435;-40
2022/04/16 00:06:54;;;;;;;19.50;16.63;;;8.20;99.90;;;;;;5049824;28;20482;-41
2022/04/16 00:09:20;;;;;;;19.77;16.27;;;8.20;99.90;;;;;;5050514;28;20435;-41
2022/04/16 00:11:46;;;;;;;20.57;16.40;;;8.10;99.90;;;;;;5040330;28;21020;-39
2022/04/16 00:14:12;;;;;;;18.90;16.10;;;8.40;99.90;;;;;;5027131;28;20189;-39
2022/04/16 00:16:38;;;;;;;17.53;15.70;;;8.70;99.90;;;;;;5037858;28;20946;-37
2022/04/16 00:19:04;;;;;;;21.23;16.80;;;8.60;99.90;;;;;;5050519;28;20519;-39
2022/04/16 00:21:30;;;;;;;18.50;15.53;;;8.50;99.90;;;;;;5040178;28;20432;-39
2022/04/16 00:23:57;;;;;;;20.07;16.77;;;8.70;99.90;;;;;;5044102;28;20198;-37
2022/04/16 00:26:23;;;;;;;23.47;18.20;;;8.80;99.90;;;;;;5046687;28;20463;-41
2022/04/16 00:28:50;;;;;;;20.00;16.63;;;8.80;99.90;;;;;;5025660;28;20421;-40
2022/04/16 00:31:16;;;;;;;18.67;16.43;;;8.70;99.90;;;;;;5040924;28;20435;-41
2022/04/16 00:33:41;;;;;;;20.37;17.13;;;8.70;99.90;;;;;;5050166;28;20432;-39
2022/04/16 00:36:07;;;;;;;20.97;17.00;;;8.60;99.90;;;;;;5036429;28;20186;-41
2022/04/16 00:38:33;;;;;;;20.73;16.80;;;8.40;99.90;;;;;;5049915;28;20308;-40
2022/04/16 00:41:00;;;;;;;18.67;16.50;;;8.50;99.90;;;;;;5049569;28;20512;-40
2022/04/16 00:43:28;;;;;;;20.77;17.83;;;8.70;99.90;;;;;;5026195;28;20191;-36
2022/04/16 00:45:54;;;;;;;20.83;16.87;;;8.50;99.90;;;;;;5031195;28;20447;-41
2022/04/16 00:48:21;;;;;;;20.67;16.50;;;8.50;99.90;;;;;;5041675;28;20421;-38
2022/04/16 00:50:49;;;;;;;20.60;16.70;;;8.30;99.90;;;;;;5046648;28;20424;-39
2022/04/16 00:53:16;;;;;;;23.17;17.93;;;8.50;99.90;;;;;;5050169;28;20492;-41
2022/04/16 00:55:42;;;;;;;21.03;16.43;;;8.10;99.90;;;;;;5049830;28;20792;-39
2022/04/16 00:58:09;;;;;;;20.47;17.93;;;8.20;99.90;;;;;;5025676;28;20511;-41
2022/04/16 01:00:34;;;;;;;18.43;16.33;;;8.20;99.90;;;;;;5038044;28;20935;-39
2022/04/16 01:03:01;;;;;;;20.00;16.90;;;8.20;99.90;;;;;;5043658;28;20458;-39
2022/04/16 01:05:27;;;;;;;19.70;16.97;;;8.10;99.90;;;;;;5044858;28;20660;-40
2022/04/16 01:07:58;;;;;;;18.80;16.00;;;8.00;99.90;;;;;;5041944;28;20432;-41
2022/04/16 01:10:29;;;;;;;20.80;18.70;;;8.00;99.90;;;;;;5048886;28;20231;-41
2022/04/16 01:13:00;;;;;;;19.67;17.40;;;7.90;99.90;;;;;;5029329;28;21183;-41
2022/04/16 01:15:28;;;;;;;26.90;18.20;;;8.00;99.90;;;;;;5025103;28;20412;-39
2022/04/16 01:17:54;;;;;;;22.33;17.77;;;8.10;99.90;;;;;;5029332;28;21203;-40
2022/04/16 01:20:20;;;;;;;22.93;18.30;;;8.10;99.90;;;;;;5028968;28;20429;-38
2022/04/16 01:22:48;;;;;;;22.33;18.93;;;8.10;99.90;;;;;;5029709;28;20432;-40
2022/04/16 01:25:14;;;;;;;23.70;19.50;;;8.10;99.90;;;;;;5037432;28;20424;-39
2022/04/16 01:27:43;;;;;;;19.50;17.33;;;7.90;99.90;;;;;;5033530;28;20484;-36
2022/04/16 01:30:11;;;;;;;23.00;18.57;;;8.00;99.90;;;;;;5020953;28;20425;-41
2022/04/16 01:32:37;;;;;;;24.10;17.47;;;7.90;99.90;;;;;;5028080;28;20444;-38
2022/04/16 01:35:06;;;;;;;21.80;19.37;;;8.10;99.90;;;;;;5029251;28;20757;-38
2022/04/16 01:37:34;;;;;;;25.53;18.97;;;8.20;99.90;;;;;;5032077;28;20509;-41
2022/04/16 01:40:01;;;;;;;22.33;18.30;;;8.00;99.90;;;;;;5048570;28;20443;-41
2022/04/16 01:42:29;;;;;;;24.63;18.50;;;7.90;99.90;;;;;;5038307;28;20775;-39
2022/04/16 01:44:56;;;;;;;22.80;18.47;;;7.80;99.90;;;;;;5020394;28;20428;-41
2022/04/16 01:47:22;;;;;;;21.87;18.03;;;7.90;99.90;;;;;;5029043;28;20459;-39
2022/04/16 01:49:48;;;;;;;21.73;18.37;;;8.00;99.90;;;;;;5028811;28;20428;-40
2022/04/16 01:52:13;;;;;;;22.20;18.93;;;7.90;99.90;;;;;;5029058;28;20429;-41
2022/04/16 01:54:41;;;;;;;22.00;18.50;;;7.90;99.90;;;;;;5029105;28;20203;-40
2022/04/16 01:57:07;;;;;;;22.87;18.60;;;8.00;99.90;;;;;;5025949;28;20732;-41
2022/04/16 01:59:32;;;;;;;23.20;19.27;;;7.80;99.90;;;;;;5020343;28;20465;-37
2022/04/16 02:01:58;;;;;;;21.57;18.00;;;7.70;99.90;;;;;;5028530;28;20576;-35
2022/04/16 02:04:24;;;;;;;24.60;19.60;;;7.80;99.90;;;;;;5028249;28;21081;-39
2022/04/16 02:06:50;;;;;;;22.07;18.27;;;8.00;99.90;;;;;;5029102;28;20516;-38
2022/04/16 02:09:16;;;;;;;23.00;18.73;;;7.80;99.90;;;;;;5029085;28;20708;-40
2022/04/16 02:11:43;;;;;;;22.60;19.43;;;8.00;99.90;;;;;;5028487;28;20520;-41
2022/04/16 02:14:08;;;;;;;23.53;19.83;;;7.80;99.90;;;;;;5014780;28;20587;-39
2022/04/16 02:16:34;;;;;;;22.47;19.93;;;7.70;99.90;;;;;;5028931;28;20453;-37
2022/04/16 02:19:00;;;;;;;24.50;19.40;;;7.70;99.90;;;;;;5028904;28;20248;-40
2022/04/16 02:21:27;;;;;;;23.07;19.90;;;7.70;99.90;;;;;;5028226;28;20186;-37
2022/04/16 02:23:54;;;;;;;25.60;19.73;;;7.80;99.90;;;;;;5028854;28;20845;-39
2022/04/16 02:26:22;;;;;;;21.40;18.50;;;7.70;99.90;;;;;;5046384;28;20779;-39
2022/04/16 02:28:48;;;;;;;24.20;18.70;;;7.70;99.90;;;;;;5023218;28;20441;-41
2022/04/16 02:31:14;;;;;;;24.07;19.60;;;7.80;99.90;;;;;;5028093;28;20527;-38
2022/04/16 02:33:40;;;;;;;24.50;19.13;;;7.80;99.90;;;;;;5028647;28;20182;-40
2022/04/16 02:36:07;;;;;;;25.30;19.90;;;7.70;99.90;;;;;;5028769;28;20433;-41
2022/04/16 02:38:33;;;;;;;24.27;19.97;;;7.70;99.90;;;;;;5028622;28;20456;-38
2022/04/16 02:40:59;;;;;;;24.20;19.07;;;7.80;99.90;;;;;;5028151;28;20437;-38
2022/04/16 02:43:25;;;;;;;23.70;19.90;;;7.80;99.90;;;;;;5020699;28;20494;-38
2022/04/16 02:48:35;;;;;;;24.13;19.50;;;7.80;99.90;;;;;;5028629;28;20553;-40
2022/04/16 02:51:02;;;;;;;23.20;19.27;;;7.90;99.90;;;;;;5027945;28;20432;-35
2022/04/16 02:53:29;;;;;;;23.07;19.60;;;7.90;99.90;;;;;;5027278;28;20186;-35
2022/04/16 02:55:55;;;;;;;22.93;20.23;;;7.80;99.90;;;;;;5028326;28;20479;-39
2022/04/16 02:58:22;;;;;;;26.23;20.57;;;7.90;99.90;;;;;;5020260;28;20474;-41
2022/04/16 03:00:48;;;;;;;30.30;21.63;;;7.90;99.90;;;;;;5025212;28;20472;-40
2022/04/16 03:03:14;;;;;;;27.57;20.73;;;8.00;99.90;;;;;;5028508;28;20429;-41
2022/04/16 03:05:41;;;;;;;25.40;20.20;;;7.90;99.90;;;;;;5027534;28;20832;-41
2022/04/16 03:08:07;;;;;;;26.63;20.40;;;8.00;99.90;;;;;;5031984;28;20429;-38
2022/04/16 03:10:33;;;;;;;24.03;20.10;;;8.10;99.90;;;;;;5009847;28;20433;-39
2022/04/16 03:12:59;;;;;;;24.80;20.40;;;8.10;99.90;;;;;;5022689;28;20917;-38
2022/04/16 03:18:10;;;;;;;24.50;20.47;;;8.10;99.90;;;;;;5029743;28;20210;-38
2022/04/16 03:20:37;;;;;;;23.53;20.20;;;8.40;99.90;;;;;;5031297;28;20413;-41
2022/04/16 03:23:04;;;;;;;27.33;21.30;;;8.10;99.90;;;;;;5031611;28;20421;-41
2022/04/16 03:25:30;;;;;;;27.13;21.23;;;8.10;99.90;;;;;;5043206;28;20482;-41
2022/04/16 03:27:57;;;;;;;27.73;21.07;;;8.20;99.90;;;;;;5026132;28;20437;-40
2022/04/16 03:30:23;;;;;;;25.93;21.00;;;8.10;99.90;;;;;;5024253;28;20417;-39
2022/04/16 03:32:51;;;;;;;25.87;21.03;;;8.10;99.90;;;;;;5031450;28;20429;-37
2022/04/16 03:35:19;;;;;;;24.00;19.30;;;8.10;99.90;;;;;;5025021;28;20429;-40
2022/04/16 03:37:45;;;;;;;25.47;21.03;;;8.10;99.90;;;;;;5031196;28;20467;-38
2022/04/16 03:40:12;;;;;;;24.00;21.00;;;8.10;99.90;;;;;;5030943;28;20490;-39
2022/04/16 03:42:49;;;;;;;24.80;21.00;;;8.00;99.90;;;;;;5031445;28;20220;-38
2022/04/16 03:45:27;;;;;;;25.03;20.17;;;8.00;99.90;;;;;;5016176;28;20413;-37
2022/04/16 03:47:54;;;;;;;23.70;20.50;;;8.00;99.90;;;;;;5029017;28;20440;-39
2022/04/16 03:50:21;;;;;;;25.60;20.77;;;8.00;99.90;;;;;;5030645;28;20535;-41
2022/04/16 03:52:48;;;;;;;28.10;22.20;;;8.20;99.90;;;;;;5028295;28;20504;-41
2022/04/16 04:00:49;;;;;;;26.57;21.97;;;8.10;99.90;;;;;;5021075;28;20860;-41
2022/04/16 04:03:16;;;;;;;27.87;22.10;;;8.00;99.90;;;;;;5030901;28;20800;-41
2022/04/16 04:05:45;;;;;;;27.53;21.17;;;8.00;99.90;;;;;;5030346;28;20425;-40
2022/04/16 04:08:11;;;;;;;29.03;22.33;;;7.90;99.90;;;;;;5028756;28;20479;-39
2022/04/16 04:10:37;;;;;;;23.57;20.60;;;8.00;99.90;;;;;;5030372;28;20551;-40
2022/04/16 04:13:04;;;;;;;28.17;22.67;;;7.80;99.90;;;;;;5029046;28;20804;-39
2022/04/16 04:15:29;;;;;;;26.57;22.77;;;8.00;99.90;;;;;;5020535;28;20448;-41
2022/04/16 04:18:00;;;;;;;29.70;23.90;;;7.90;99.90;;;;;;5030343;28;20971;-37
2022/04/16 04:20:27;;;;;;;29.17;22.97;;;7.80;99.90;;;;;;5028822;28;20433;-42
2022/04/16 04:22:53;;;;;;;29.43;23.07;;;7.90;99.90;;;;;;5025973;28;20465;-41
2022/04/16 04:25:19;;;;;;;31.43;22.27;;;7.90;99.90;;;;;;5030573;28;21074;-38
2022/04/16 04:27:45;;;;;;;30.67;24.23;;;8.00;99.90;;;;;;5030759;28;20433;-41
2022/04/16 04:30:12;;;;;;;28.47;22.53;;;7.90;99.90;;;;;;5021778;28;20441;-41
2022/04/16 04:32:38;;;;;;;34.13;24.77;;;7.90;99.90;;;;;;5030408;28;20467;-38
2022/04/16 04:35:05;;;;;;;27.27;22.60;;;7.90;99.90;;;;;;5030293;28;20840;-35
2022/04/16 04:37:30;;;;;;;27.97;24.60;;;8.00;99.90;;;;;;5030475;28;20190;-37
2022/04/16 04:39:56;;;;;;;31.40;24.37;;;7.80;99.90;;;;;;5029540;28;20917;-40
2022/04/16 04:42:26;;;;;;;31.67;24.00;;;7.90;99.90;;;;;;5030214;28;20202;-36
2022/04/16 04:44:52;;;;;;;32.03;25.60;;;8.00;99.90;;;;;;5020523;28;20625;-41
2022/04/16 04:47:18;;;;;;;28.83;23.47;;;7.90;99.90;;;;;;5030274;28;20796;-40
2022/04/16 04:49:43;;;;;;;29.50;23.10;;;8.00;99.90;;;;;;5029498;28;20429;-40
2022/04/16 04:52:09;;;;;;;32.97;25.13;;;7.80;99.90;;;;;;5030039;28;20190;-41
2022/04/16 04:54:35;;;;;;;32.90;24.77;;;8.00;99.90;;;;;;5029916;28;20193;-38
2022/04/16 04:57:03;;;;;;;28.27;23.13;;;8.00;99.90;;;;;;5030012;28;20508;-41
2022/04/16 04:59:29;;;;;;;28.87;24.07;;;8.00;99.90;;;;;;5018857;28;20333;-37
2022/04/16 05:01:55;;;;;;;30.83;23.40;;;8.00;99.90;;;;;;5027739;28;20516;-36
2022/04/16 05:04:21;;;;;;;34.27;26.30;;;8.20;99.90;;;;;;5027489;28;20197;-41
2022/04/16 05:06:46;;;;;;;30.77;24.83;;;7.90;99.90;;;;;;5029750;28;21029;-38
2022/04/16 05:09:12;;;;;;;29.13;24.47;;;8.00;99.90;;;;;;5029574;28;20190;-39
2022/04/16 05:11:38;;;;;;;31.87;22.80;;;8.10;99.90;;;;;;5029011;28;20194;-40
2022/04/16 05:14:04;;;;;;;29.30;24.37;;;8.10;99.90;;;;;;5023416;28;20206;-39
2022/04/16 05:16:29;;;;;;;29.03;24.20;;;8.20;99.90;;;;;;5025682;28;20288;-40
2022/04/16 05:18:55;;;;;;;31.17;24.27;;;8.30;99.90;;;;;;5029650;28;20567;-38
2022/04/16 05:21:21;;;;;;;31.33;24.27;;;8.40;99.90;;;;;;5028934;28;20205;-40
2022/04/16 05:23:46;;;;;;;30.10;23.07;;;8.20;99.90;;;;;;5029435;28;20186;-36
2022/04/16 05:26:12;;;;;;;29.63;23.57;;;8.20;99.90;;;;;;5045321;28;20331;-37
2022/04/16 05:28:38;;;;;;;32.30;25.10;;;8.10;99.90;;;;;;5043545;28;20248;-36
2022/04/16 05:31:05;;;;;;;29.83;25.00;;;8.20;99.90;;;;;;5023163;28;20190;-40
2022/04/16 05:36:16;;;;;;;30.60;22.93;;;8.50;99.90;;;;;;5029019;28;20421;-38
2022/04/16 05:38:42;;;;;;;33.33;24.00;;;8.50;99.90;;;;;;5029038;28;20476;-37
2022/04/16 05:41:08;;;;;;;32.83;24.60;;;8.50;99.90;;;;;;5028552;28;20428;-40
2022/04/16 05:43:34;;;;;;;30.47;24.70;;;8.50;99.90;;;;;;5027264;28;20428;-37
2022/04/16 05:46:00;;;;;;;31.17;24.97;;;8.60;99.90;;;;;;5022310;28;20429;-37
2022/04/16 05:48:25;;;;;;;31.10;24.80;;;8.70;99.90;;;;;;5028952;28;20200;-37
2022/04/16 05:50:52;;;;;;;29.30;25.50;;;8.70;99.90;;;;;;5028440;28;20198;-40
2022/04/16 05:53:18;;;;;;;33.30;25.33;;;8.90;99.90;;;;;;5029137;28;20182;-38
2022/04/16 05:55:53;;;;;;;31.03;24.60;;;9.10;99.90;;;;;;5029303;28;20840;-39
2022/04/16 05:58:18;;;;;;;31.03;23.70;;;9.20;99.90;;;;;;5028821;28;20480;-40
2022/04/16 06:00:44;;;;;;;27.60;22.37;;;9.40;99.90;;;;;;5019862;28;20448;-38
2022/04/16 06:03:10;;;;;;;26.37;22.00;;;9.80;99.90;;;;;;5027352;28;20202;-40
2022/04/16 06:05:36;;;;;;;29.30;23.50;;;9.70;99.90;;;;;;5028061;28;20429;-36
2022/04/16 06:08:03;;;;;;;30.00;22.80;;;9.90;99.90;;;;;;5028556;28;20200;-39
2022/04/16 06:10:29;;;;;;;29.80;23.10;;;10.30;99.90;;;;;;5026921;28;20499;-41
2022/04/16 06:12:54;;;;;;;24.87;21.13;;;10.10;99.90;;;;;;5029105;28;20796;-38
2022/04/16 06:15:22;;;;;;;30.00;22.50;;;10.30;99.90;;;;;;5018252;28;20191;-38
2022/04/16 06:17:48;;;;;;;26.20;21.20;;;10.50;99.90;;;;;;5028362;28;20221;-39
2022/04/16 06:20:14;;;;;;;26.43;20.77;;;10.60;99.90;;;;;;5029082;28;20916;-38
2022/04/16 06:22:40;;;;;;;27.30;22.63;;;10.70;99.90;;;;;;5024795;28;20460;-39
2022/04/16 06:25:08;;;;;;;26.93;21.90;;;10.90;99.90;;;;;;5022329;28;20441;-37
2022/04/16 06:27:39;;;;;;;25.87;20.70;;;10.60;99.90;;;;;;5021601;28;20428;-39
2022/04/16 06:30:09;;;;;;;25.10;21.03;;;10.70;99.90;;;;;;5018851;28;20432;-41
2022/04/16 06:32:36;;;;;;;25.77;20.27;;;11.00;99.90;;;;;;5028740;28;20425;-36
2022/04/16 06:35:05;;;;;;;24.03;19.67;;;11.00;99.90;;;;;;5029229;28;20480;-41
2022/04/16 06:37:35;;;;;;;25.77;20.80;;;11.00;99.90;;;;;;5028684;28;20421;-38
2022/04/16 06:40:02;;;;;;;24.50;20.53;;;11.00;99.90;;;;;;5028528;28;20433;-40
2022/04/16 06:42:28;;;;;;;27.40;20.43;;;11.10;99.90;;;;;;5032619;28;20429;-38
2022/04/16 06:44:54;;;;;;;22.07;18.40;;;11.20;99.90;;;;;;5028329;28;20922;-37
2022/04/16 06:47:20;;;;;;;21.70;18.40;;;11.20;99.90;;;;;;5032940;28;20428;-36
2022/04/16 06:49:46;;;;;;;19.83;16.53;;;11.40;99.90;;;;;;5031781;28;20190;-39
2022/04/16 06:52:12;;;;;;;20.23;17.37;;;11.50;99.90;;;;;;5031641;28;20205;-39
2022/04/16 06:54:38;;;;;;;18.70;16.70;;;11.60;99.90;;;;;;5030008;28;20198;-37
2022/04/16 06:57:04;;;;;;;22.37;17.87;;;11.60;99.90;;;;;;5036212;28;20871;-40
2022/04/16 06:59:30;;;;;;;19.00;16.40;;;11.70;99.90;;;;;;5043491;28;20564;-39
2022/04/16 07:01:56;;;;;;;23.57;18.40;;;11.70;99.90;;;;;;5024564;28;20994;-38
2022/04/16 07:04:22;;;;;;;18.53;15.97;;;11.80;99.90;;;;;;5030001;28;20199;-38
2022/04/16 07:06:48;;;;;;;20.53;16.03;;;11.80;99.90;;;;;;5029851;28;20199;-35
2022/04/16 07:09:13;;;;;;;21.10;17.83;;;11.90;99.90;;;;;;5026900;28;20955;-40
2022/04/16 07:11:39;;;;;;;21.10;18.20;;;11.90;99.90;;;;;;5031044;28;20198;-42
2022/04/16 07:14:05;;;;;;;21.87;17.90;;;12.00;99.90;;;;;;5030192;28;20190;-41
2022/04/16 07:16:30;;;;;;;19.70;17.00;;;11.80;99.90;;;;;;5028230;28;20774;-42
2022/04/16 07:18:56;;;;;;;18.00;15.70;;;11.90;99.90;;;;;;5030478;28;20210;-39
2022/04/16 07:21:22;;;;;;;19.00;15.50;;;11.90;99.90;;;;;;5029946;28;20189;-41
2022/04/16 07:23:48;;;;;;;18.27;14.80;;;11.90;99.90;;;;;;5025247;28;20191;-41
2022/04/16 07:26:13;;;;;;;18.80;15.33;;;12.00;99.90;;;;;;5027295;28;20678;-41
2022/04/16 07:28:39;;;;;;;18.57;15.40;;;12.00;99.90;;;;;;5024723;28;20226;-39
2022/04/16 07:31:05;;;;;;;16.53;13.23;;;12.10;99.90;;;;;;5019663;28;20859;-41
2022/04/16 07:33:31;;;;;;;17.60;15.03;;;12.10;99.90;;;;;;5030125;28;20650;-38
2022/04/16 07:35:57;;;;;;;18.77;15.13;;;12.00;99.90;;;;;;5027611;28;20209;-39
2022/04/16 07:38:23;;;;;;;19.87;14.93;;;12.00;99.90;;;;;;5030899;28;20472;-38
2022/04/16 07:40:49;;;;;;;18.33;15.10;;;12.00;99.90;;;;;;5030959;28;20845;-41
2022/04/16 07:43:15;;;;;;;17.53;15.63;;;12.00;99.90;;;;;;5031055;28;20457;-40
2022/04/16 07:45:42;;;;;;;15.83;13.90;;;12.00;99.90;;;;;;5029615;28;20456;-41
2022/04/16 07:48:08;;;;;;;19.63;15.10;;;12.00;99.90;;;;;;5025139;28;20429;-39
2022/04/16 07:50:34;;;;;;;21.57;16.27;;;12.00;99.90;;;;;;5030636;28;20439;-39
2022/04/16 07:53:00;;;;;;;17.07;14.27;;;12.00;99.90;;;;;;5027603;28;20785;-39
2022/04/16 07:55:31;;;;;;;24.23;16.70;;;12.00;99.90;;;;;;5031085;28;20198;-39
2022/04/16 07:57:58;;;;;;;19.43;14.93;;;12.10;99.90;;;;;;5030712;28;20713;-40
2022/04/16 08:00:23;;;;;;;20.00;15.93;;;11.90;99.90;;;;;;5024418;28;20964;-37
2022/04/16 08:02:49;;;;;;;18.60;15.47;;;11.80;99.90;;;;;;5029657;28;20437;-35
2022/04/16 08:05:15;;;;;;;21.53;15.27;;;11.70;99.90;;;;;;5029009;28;20214;-37
2022/04/16 08:07:41;;;;;;;16.63;14.80;;;11.80;99.90;;;;;;5031031;28;20548;-38
2022/04/16 08:10:07;;;;;;;19.10;15.80;;;11.70;99.90;;;;;;5029608;28;20194;-39
2022/04/16 08:12:33;;;;;;;19.40;15.43;;;11.80;99.90;;;;;;5030777;28;20191;-37
2022/04/16 08:14:59;;;;;;;19.57;14.33;;;11.90;99.90;;;;;;5026289;28;20529;-39
2022/04/16 08:17:24;;;;;;;22.57;16.33;;;11.70;99.90;;;;;;5025129;28;20221;-38
2022/04/16 08:19:50;;;;;;;19.23;14.30;;;11.70;99.90;;;;;;5028545;28;20305;-41
2022/04/16 08:22:21;;;;;;;15.63;13.93;;;11.70;99.90;;;;;;5030781;28;20278;-36
2022/04/16 08:27:36;;;;;;;20.70;14.93;;;11.90;99.90;;;;;;5050603;28;20436;-41
2022/04/16 08:30:02;;;;;;;13.87;12.47;;;11.90;99.90;;;;;;5042555;28;20450;-40
2022/04/16 08:32:27;;;;;;;13.50;11.00;;;11.90;99.90;;;;;;5028632;28;20505;-41
2022/04/16 08:34:53;;;;;;;16.83;13.67;;;12.00;99.90;;;;;;5029486;28;20972;-36
2022/04/16 08:37:19;;;;;;;15.30;11.90;;;12.00;99.90;;;;;;5031479;28;20538;-39
2022/04/16 08:39:45;;;;;;;12.70;10.80;;;12.10;99.90;;;;;;5029341;28;20966;-38
2022/04/16 08:42:11;;;;;;;12.50;10.63;;;12.10;99.90;;;;;;5030612;28;20525;-41
2022/04/16 08:44:39;;;;;;;13.37;11.20;;;12.10;99.90;;;;;;5028756;28;20198;-40
2022/04/16 08:47:06;;;;;;;10.73;9.63;;;12.10;99.90;;;;;;5018644;28;20464;-38
2022/04/16 08:49:34;;;;;;;14.40;11.23;;;12.10;99.90;;;;;;5029298;28;20455;-40
2022/04/16 08:52:02;;;;;;;15.13;13.07;;;12.10;99.90;;;;;;5029855;28;20433;-37
2022/04/16 08:54:27;;;;;;;16.00;13.60;;;12.10;99.90;;;;;;5029730;28;20441;-41
2022/04/16 08:56:53;;;;;;;16.30;13.07;;;12.10;99.90;;;;;;5029985;28;20936;-38
2022/04/16 08:59:19;;;;;;;15.90;13.17;;;12.10;99.90;;;;;;5034291;28;20589;-41
2022/04/16 09:01:45;;;;;;;15.40;13.00;;;12.00;99.90;;;;;;5015780;28;20203;-40
2022/04/16 09:04:23;;;;;;;15.80;12.80;;;12.10;99.90;;;;;;5028363;28;20213;-40
2022/04/16 09:07:03;;;;;;;15.60;12.60;;;12.00;99.90;;;;;;5029495;28;20269;-36
2022/04/16 09:09:29;;;;;;;15.30;11.87;;;12.20;99.90;;;;;;5029890;28;20923;-41
2022/04/16 09:11:55;;;;;;;15.97;13.57;;;12.10;99.90;;;;;;5029026;28;20429;-37
2022/04/16 09:14:42;;;;;;;11.87;10.57;;;12.20;99.90;;;;;;5029717;28;20932;-41
2022/04/16 09:17:08;;;;;;;16.00;10.83;;;12.40;99.90;;;;;;5021401;28;20477;-40
2022/04/16 09:19:34;;;;;;;14.63;10.97;;;12.60;99.90;;;;;;5029013;28;20489;-41
2022/04/16 09:22:00;;;;;;;14.50;10.93;;;12.80;99.90;;;;;;5027892;28;20464;-39
2022/04/16 09:24:26;;;;;;;13.57;11.47;;;13.10;99.90;;;;;;5030591;28;20198;-39
2022/04/16 09:26:53;;;;;;;13.90;10.73;;;13.20;99.90;;;;;;5049465;28;20193;-40
2022/04/16 09:29:19;;;;;;;11.23;10.03;;;13.40;99.90;;;;;;5049389;28;20424;-41
2022/04/16 09:31:46;;;;;;;10.83;9.77;;;13.40;99.90;;;;;;5022901;28;20500;-40
2022/04/16 09:34:21;;;;;;;11.13;9.63;;;13.50;99.90;;;;;;5025420;28;20528;-38
2022/04/16 09:36:48;;;;;;;10.30;9.23;;;13.40;99.90;;;;;;5029268;28;20802;-40
2022/04/16 09:39:15;;;;;;;9.30;8.33;;;13.50;99.90;;;;;;5029208;28;20461;-36
2022/04/16 09:41:42;;;;;;;13.43;10.00;;;13.60;99.90;;;;;;5028575;28;20421;-38
2022/04/16 09:44:27;;;;;;;10.53;9.43;;;13.70;99.90;;;;;;5028630;28;20852;-41
2022/04/16 09:46:57;;;;;;;9.93;8.93;;;14.00;99.90;;;;;;5021587;28;20452;-41
2022/04/16 09:49:25;;;;;;;10.33;8.50;;;14.10;99.90;;;;;;5027185;28;20783;-36
2022/04/16 09:51:51;;;;;;;10.30;7.80;;;14.30;99.70;;;;;;5028562;28;20425;-38
2022/04/16 09:54:18;;;;;;;9.87;8.67;;;14.50;99.70;;;;;;5023501;28;20449;-40
2022/04/16 09:56:49;;;;;;;9.83;8.13;;;14.50;98.90;;;;;;5033018;28;20940;-38
2022/04/16 09:59:16;;;;;;;9.93;7.80;;;14.50;99.40;;;;;;5028287;28;20527;-37
2022/04/16 10:01:47;;;;;;;9.07;8.17;;;14.70;99.90;;;;;;5018423;28;20488;-38
2022/04/16 10:04:20;;;;;;;8.87;7.97;;;14.90;98.60;;;;;;5025188;28;20445;-38
2022/04/16 10:06:48;;;;;;;7.97;7.17;;;14.80;98.10;;;;;;5028310;28;20452;-41
2022/04/16 10:09:17;;;;;;;7.83;6.80;;;14.90;97.40;;;;;;5028517;28;20792;-41
2022/04/16 10:14:53;;;;;;;7.93;6.93;;;14.90;97.50;;;;;;5030155;28;20769;-40
2022/04/16 10:17:35;;;;;;;9.87;7.80;;;14.90;97.80;;;;;;5024010;28;20439;-40
2022/04/16 10:20:11;;;;;;;8.80;7.47;;;14.90;97.60;;;;;;5031221;28;20941;-39
2022/04/16 10:22:37;;;;;;;7.63;6.83;;;15.00;97.40;;;;;;5031746;28;20429;-41
2022/04/16 10:25:04;;;;;;;8.73;6.80;;;15.00;97.30;;;;;;5038942;28;20570;-40
2022/04/16 10:27:40;;;;;;;9.03;7.23;;;15.10;97.60;;;;;;5051558;28;20431;-38
2022/04/16 10:30:11;;;;;;;7.90;7.03;;;15.00;97.40;;;;;;5040793;28;20479;-41
2022/04/16 10:32:42;;;;;;;7.53;6.83;;;15.00;96.90;;;;;;5021842;28;20472;-37
2022/04/16 10:35:16;;;;;;;7.90;7.13;;;15.00;97.30;;;;;;5024623;28;20514;-37
2022/04/16 10:37:48;;;;;;;9.10;7.30;;;15.00;97.10;;;;;;5032141;28;20506;-38
2022/04/16 10:40:23;;;;;;;6.17;5.57;;;15.10;96.60;;;;;;5031117;28;20925;-35
2022/04/16 10:42:59;;;;;;;7.80;6.93;;;15.10;96.40;;;;;;5030989;28;20436;-40
2022/04/16 10:45:25;;;;;;;7.23;6.53;;;15.20;96.30;;;;;;5032485;28;20452;-41
2022/04/16 10:47:54;;;;;;;8.30;7.27;;;15.30;96.90;;;;;;5023282;28;20440;-39
2022/04/16 10:50:21;;;;;;;8.17;7.37;;;15.30;95.70;;;;;;5031686;28;20429;-39
2022/04/16 10:52:58;;;;;;;8.67;7.77;;;15.40;95.80;;;;;;5032458;28;20436;-40
2022/04/16 10:55:31;;;;;;;8.20;7.40;;;15.50;95.80;;;;;;5032166;28;20425;-41
2022/04/16 10:58:03;;;;;;;8.30;6.63;;;15.40;95.40;;;;;;5032336;28;20472;-41
2022/04/16 11:00:45;;;;;;;8.53;7.70;;;15.40;96.90;;;;;;5031639;28;20455;-39
2022/04/16 11:03:28;;;;;;;7.47;6.67;;;15.60;95.50;;;;;;5017511;28;20428;-41
2022/04/16 11:06:04;;;;;;;7.23;6.53;;;15.60;93.90;;;;;;5030856;28;20828;-36
2022/04/16 11:08:34;;;;;;;8.30;7.27;;;15.60;94.90;;;;;;5030863;28;20761;-39
2022/04/16 11:11:03;;;;;;;7.60;6.70;;;15.70;95.10;;;;;;5031404;28;20436;-36
2022/04/16 11:13:36;;;;;;;7.80;6.90;;;15.70;94.80;;;;;;5031868;28;20428;-41
2022/04/16 11:16:03;;;;;;;7.83;6.37;;;15.70;93.10;;;;;;5027594;28;20433;-38
2022/04/16 11:18:41;;;;;;;7.17;6.47;;;15.70;92.20;;;;;;5022275;28;20477;-36
2022/04/16 11:21:09;;;;;;;7.43;5.90;;;15.70;92.50;;;;;;5017248;28;20433;-39
2022/04/16 11:23:46;;;;;;;7.50;6.67;;;15.80;91.50;;;;;;5031722;28;20991;-38
2022/04/16 11:34:34;;;;;;;6.60;6.00;;;16.00;91.80;;;;;;5031108;28;20425;-40
2022/04/16 11:37:00;;;;;;;5.93;5.40;;;16.10;90.00;;;;;;5031583;28;20579;-39
2022/04/16 11:39:31;;;;;;;5.60;5.00;;;16.00;90.60;;;;;;5029991;28;20464;-39
2022/04/16 11:41:59;;;;;;;6.40;5.33;;;15.90;90.00;;;;;;5029367;28;20880;-37
2022/04/16 11:44:45;;;;;;;5.67;5.07;;;15.80;90.00;;;;;;5031498;28;20425;-41
2022/04/16 11:47:19;;;;;;;5.63;4.60;;;15.70;88.20;;;;;;5028061;28;20907;-41
2022/04/16 11:49:49;;;;;;;6.20;4.83;;;15.60;89.30;;;;;;5030559;28;20425;-38
2022/04/16 11:52:15;;;;;;;7.03;5.57;;;15.60;90.10;;;;;;5031090;28;20421;-40
2022/04/16 11:54:41;;;;;;;5.73;5.13;;;15.70;87.90;;;;;;5029944;28;20413;-41
2022/04/16 11:57:07;;;;;;;5.30;4.80;;;15.80;88.40;;;;;;5031150;28;20967;-41
2022/04/16 11:59:34;;;;;;;4.30;3.90;;;15.80;85.40;;;;;;5041522;28;20456;-38
2022/04/16 12:02:10;;;;;;;5.60;5.00;;;15.80;87.00;;;;;;5038328;28;20472;-40
2022/04/16 12:04:43;;;;;;;5.60;4.87;;;15.80;87.60;;;;;;5025112;28;20424;-38
2022/04/16 12:07:16;;;;;;;7.07;5.17;;;15.80;88.90;;;;;;5032956;28;20441;-39
2022/04/16 12:09:51;;;;;;;5.80;4.60;;;15.80;88.30;;;;;;5030237;28;20433;-40
2022/04/16 12:12:19;;;;;;;4.80;4.30;;;15.90;85.80;;;;;;5030898;28;20421;-40
2022/04/16 12:14:54;;;;;;;4.43;4.10;;;15.90;83.20;;;;;;5023699;28;20430;-40
2022/04/16 12:17:30;;;;;;;4.30;3.90;;;15.90;83.70;;;;;;5019289;28;20438;-40
2022/04/16 12:20:16;;;;;;;4.60;3.90;;;16.00;82.90;;;;;;5027256;28;20798;-41
2022/04/16 12:22:48;;;;;;;4.40;3.80;;;16.00;84.60;;;;;;5030502;28;20437;-41
2022/04/16 12:25:19;;;;;;;4.17;3.50;;;16.00;84.50;;;;;;5035046;28;20520;-40
2022/04/16 12:27:52;;;;;;;4.90;3.33;;;16.10;78.80;;;;;;5045941;28;20427;-41
2022/04/16 12:30:24;;;;;;;4.10;3.47;;;16.20;80.70;;;;;;5050013;28;20477;-40
2022/04/16 12:33:01;;;;;;;4.60;3.50;;;16.20;81.80;;;;;;5028613;28;20440;-39
2022/04/16 12:35:28;;;;;;;3.50;3.20;;;16.20;74.90;;;;;;5030377;28;20508;-40
2022/04/16 12:37:55;;;;;;;5.43;3.70;;;16.20;76.80;;;;;;5029331;28;20436;-37
2022/04/16 12:40:21;;;;;;;4.47;3.67;;;16.20;73.90;;;;;;5029810;28;20425;-41
2022/04/16 12:42:52;;;;;;;4.10;3.23;;;16.20;76.20;;;;;;5030495;28;20417;-40
2022/04/16 12:45:19;;;;;;;3.80;3.17;;;16.20;75.10;;;;;;5030170;28;20472;-37
2022/04/16 12:47:45;;;;;;;3.07;2.70;;;16.20;74.60;;;;;;5021511;28;20596;-41
2022/04/16 12:50:12;;;;;;;3.67;3.13;;;16.20;74.80;;;;;;5029522;28;20508;-41
2022/04/16 12:52:38;;;;;;;3.40;2.70;;;16.20;77.00;;;;;;5036241;28;20190;-41
2022/04/16 12:55:04;;;;;;;2.67;2.40;;;16.30;75.50;;;;;;5049560;28;20423;-40
2022/04/16 12:57:30;;;;;;;3.03;2.43;;;16.30;71.90;;;;;;5035234;28;20225;-39
2022/04/16 12:59:55;;;;;;;4.03;2.50;;;16.20;70.80;;;;;;5029271;28;20511;-40
2022/04/16 13:02:21;;;;;;;2.67;2.30;;;16.30;71.80;;;;;;5023350;28;20215;-40
2022/04/16 13:04:48;;;;;;;3.10;2.20;;;16.30;72.10;;;;;;5026261;28;20210;-38
2022/04/16 13:07:14;;;;;;;2.50;2.30;;;16.50;67.90;;;;;;5029804;28;20615;-39